St Cloud Regional Airport
KSTC : now visible

Airfield :











YOU CAN JOIN US ON...

 
LOGIN :

Register | Disclaimer

   EN    FR    IT 

 









Legend :    VFR   Marginal VFR   IFR   Intensive IFR   Very Intensive IFR
Visi :
Ceiling :
>= 8 km
>= 3000ft
5 to 8 km
1000 to 3000 ft
1500m to 5 km
500 to 1000 ft
800 to 1500m
200 to 500 ft
< 800m
< 200 ft
Symbols :   Thunderstorms  Fog  Heavy snow  Heavy precipitations  Wind > 20 kt






- Airport Elevation : 1031 ft
- IATA code : STC


KSTC - St Cloud Regional

CURRENT METAR :
  • 280753Z AUTO 31005KT 10SM OVC006 M08/M09 A3012 RMK AO2 SLP226 T10831094

EXPIRED METARs :
  • 280653Z AUTO 32006KT 10SM OVC007 M08/M10 A3012 RMK AO2 SLP226 T10831100
  • 280553Z AUTO 10SM OVC006 M08/M09 A3011 RMK AO2 SLP224 T10781089 11067 21078 410501078 51005
  • 280453Z 36006KT 10SM OVC005 M08/M09 A3011 RMK AO2 SLP224 T10781089

TAF KSTC
Valid from the 28 at 06:00 until the 29 at 06:00 UTC


280520Z 2806/2906 32006KT P6SM OVC005
FM281800 VRB02KT P6SM OVC012



MET'MAP, your aeronautical weather chart ! - Copyright ORBIFLY December 2007 - Disclaimer

ORBIFLY MET'MAP TEAM :

Programming & Development : Alexandra Zaïnal
Concept & original design : Baudouin d'Aumeries
Assistance for programming : Marc-Olivier Méhu
Technical & hardware support : Manuel Goepfert

Contact : metmap@orbifly.com




SOURCES & CREDITS :

   NOAA       Earth
Advisory